createdAt,value
2023-01-30T00:01:19.941Z,72.85
2023-01-30T00:03:47.723Z,73.12
2023-01-30T00:06:16.302Z,72.57
2023-01-30T00:08:43.906Z,72.70
2023-01-30T00:11:14.524Z,73.05
2023-01-30T00:13:43.809Z,72.99
2023-01-30T00:16:12.521Z,73.23
2023-01-30T00:18:41.962Z,72.87
2023-01-30T00:21:14.304Z,73.25
2023-01-30T00:23:42.627Z,74.26
2023-01-30T00:26:11.962Z,73.31
2023-01-30T00:28:40.184Z,73.40
2023-01-30T00:31:08.643Z,73.64
2023-01-30T00:33:38.875Z,73.71
2023-01-30T00:36:07.327Z,74.34
2023-01-30T00:38:34.731Z,74.59
2023-01-30T00:41:02.715Z,74.69
2023-01-30T00:43:48.863Z,74.67
2023-01-30T00:46:48.580Z,75.15
2023-01-30T00:49:16.438Z,75.26
2023-01-30T00:51:44.490Z,76.10
2023-01-30T00:54:11.975Z,76.30
2023-01-30T00:56:39.595Z,76.59
2023-01-30T00:59:06.891Z,77.08
2023-01-30T01:01:34.640Z,78.14
2023-01-30T01:04:02.051Z,78.32
2023-01-30T01:06:30.455Z,78.88
2023-01-30T01:08:57.836Z,79.43
2023-01-30T01:11:25.665Z,79.71
2023-01-30T01:13:56.534Z,80.16
2023-01-30T01:16:26.825Z,79.97
2023-01-30T01:18:54.929Z,80.72
2023-01-30T01:21:23.423Z,81.04
2023-01-30T01:23:53.684Z,81.34
2023-01-30T01:26:22.040Z,81.52
2023-01-30T01:28:49.521Z,82.14
2023-01-30T01:31:17.863Z,82.27
2023-01-30T01:33:45.350Z,82.54
2023-01-30T01:36:20.058Z,83.16
2023-01-30T01:38:58.305Z,83.48
2023-01-30T01:41:25.912Z,83.32
2023-01-30T01:44:11.325Z,83.68
2023-01-30T01:47:00.148Z,83.98
2023-01-30T01:49:34.022Z,83.80
2023-01-30T01:52:13.351Z,84.04
2023-01-30T01:54:59.797Z,84.42
2023-01-30T01:57:39.003Z,84.83
2023-01-30T02:00:15.543Z,84.93
2023-01-30T02:03:14.946Z,85.58
2023-01-30T02:05:48.644Z,85.28
2023-01-30T02:08:29.389Z,85.65
2023-01-30T02:11:10.202Z,85.86
2023-01-30T02:13:38.629Z,85.84
2023-01-30T02:16:08.379Z,86.02
2023-01-30T02:18:41.853Z,85.68
2023-01-30T02:21:40.336Z,85.68
2023-01-30T02:24:51.859Z,85.26
2023-01-30T02:27:45.374Z,85.44
2023-01-30T02:30:21.661Z,85.18
2023-01-30T02:33:17.922Z,85.14
2023-01-30T02:36:21.433Z,85.27
2023-01-30T02:39:34.928Z,85.37
2023-01-30T02:42:25.647Z,85.07
2023-01-30T02:45:29.383Z,85.19
2023-01-30T02:48:05.438Z,85.07
2023-01-30T02:50:40.950Z,84.82
2023-01-30T02:53:08.981Z,84.79
2023-01-30T02:55:36.516Z,84.56
2023-01-30T02:58:05.057Z,84.77
2023-01-30T03:01:03.929Z,84.12
2023-01-30T03:04:01.661Z,84.36
2023-01-30T03:07:07.781Z,84.41
2023-01-30T03:09:54.502Z,84.04
2023-01-30T03:12:46.494Z,83.77
2023-01-30T03:15:31.199Z,83.70
2023-01-30T03:17:59.750Z,83.40
2023-01-30T03:20:27.365Z,83.20
2023-01-30T03:22:55.670Z,83.22
2023-01-30T03:25:27.064Z,82.84
2023-01-30T03:27:56.787Z,83.03
2023-01-30T03:30:26.716Z,83.48
2023-01-30T03:32:54.258Z,83.01
2023-01-30T03:35:21.939Z,83.31
2023-01-30T03:37:49.809Z,83.15
2023-01-30T03:40:18.019Z,83.47
2023-01-30T03:42:45.909Z,83.24
2023-01-30T03:45:13.576Z,83.12
2023-01-30T03:47:40.885Z,82.90
2023-01-30T03:50:09.701Z,83.16
2023-01-30T03:52:37.946Z,82.75
2023-01-30T03:55:06.172Z,82.93
2023-01-30T03:57:33.525Z,82.27
2023-01-30T04:00:01.217Z,82.43
2023-01-30T04:02:28.568Z,82.29
2023-01-30T04:04:56.347Z,81.80
2023-01-30T04:07:23.926Z,82.22
2023-01-30T04:09:51.559Z,81.56
2023-01-30T04:12:18.984Z,81.86
2023-01-30T04:14:46.645Z,81.35
2023-01-30T04:17:14.047Z,81.92
2023-01-30T04:19:41.660Z,82.02
2023-01-30T04:22:08.942Z,81.82
2023-01-30T04:24:36.465Z,81.05
2023-01-30T04:27:03.922Z,81.74
2023-01-30T04:29:31.691Z,81.47
2023-01-30T04:31:58.995Z,81.73
2023-01-30T04:34:26.537Z,81.84
2023-01-30T04:36:53.866Z,81.74
2023-01-30T04:39:22.191Z,81.44
2023-01-30T04:41:49.618Z,81.05
2023-01-30T04:44:17.286Z,80.99
2023-01-30T04:46:44.702Z,81.00
2023-01-30T04:49:12.787Z,80.72
2023-01-30T04:51:40.086Z,80.53
2023-01-30T04:54:07.801Z,80.95
2023-01-30T04:56:35.147Z,80.29
2023-01-30T04:59:02.859Z,80.49
2023-01-30T05:01:42.295Z,80.63
2023-01-30T05:04:10.283Z,80.52
2023-01-30T05:06:37.728Z,80.13
2023-01-30T05:09:06.109Z,79.71
2023-01-30T05:11:34.078Z,79.64
2023-01-30T05:14:02.219Z,79.64
2023-01-30T05:16:29.908Z,80.05
2023-01-30T05:18:57.695Z,80.02
2023-01-30T05:21:30.765Z,79.77
2023-01-30T05:23:58.576Z,79.49
2023-01-30T05:26:27.111Z,78.80
2023-01-30T05:28:57.219Z,79.03
2023-01-30T05:31:25.631Z,78.80
2023-01-30T05:33:53.616Z,79.06
2023-01-30T05:36:23.566Z,79.04
2023-01-30T05:38:51.325Z,78.82
2023-01-30T05:41:19.043Z,78.28
2023-01-30T05:43:51.102Z,77.98
2023-01-30T05:46:18.885Z,77.99
2023-01-30T05:48:46.811Z,77.70
2023-01-30T05:51:32.273Z,76.63
2023-01-30T05:54:00.443Z,76.83
2023-01-30T05:56:27.829Z,77.22
2023-01-30T05:58:57.005Z,77.41
2023-01-30T06:01:24.648Z,76.59
2023-01-30T06:03:53.253Z,76.81
2023-01-30T06:06:21.838Z,76.61
2023-01-30T06:08:54.566Z,77.13
2023-01-30T06:11:22.978Z,76.96
2023-01-30T06:13:50.741Z,76.51
2023-01-30T06:16:19.537Z,76.87
2023-01-30T06:18:47.578Z,76.66
2023-01-30T06:21:16.441Z,77.16
2023-01-30T06:23:44.330Z,76.86
2023-01-30T06:26:11.757Z,76.32
2023-01-30T06:28:39.375Z,75.96
2023-01-30T06:31:08.332Z,76.21
2023-01-30T06:33:36.424Z,76.48
2023-01-30T06:36:04.072Z,76.26
2023-01-30T06:38:31.681Z,76.09
2023-01-30T06:40:59.211Z,75.82
2023-01-30T06:43:26.780Z,76.05
2023-01-30T06:45:54.095Z,75.59
2023-01-30T06:48:21.718Z,75.67
2023-01-30T06:50:49.051Z,75.69
2023-01-30T06:53:16.696Z,75.37
2023-01-30T06:55:43.999Z,74.95
2023-01-30T06:58:15.020Z,75.06
2023-01-30T07:00:43.375Z,74.70
2023-01-30T07:03:17.189Z,74.73
2023-01-30T07:05:47.572Z,74.41
2023-01-30T07:08:16.655Z,74.94
2023-01-30T07:10:45.497Z,75.59
2023-01-30T07:13:13.768Z,75.40
2023-01-30T07:15:41.114Z,76.78
2023-01-30T07:18:08.899Z,73.47
2023-01-30T07:20:36.259Z,73.00
2023-01-30T07:23:04.324Z,73.32
2023-01-30T07:25:31.673Z,73.32
2023-01-30T07:28:03.309Z,73.35
2023-01-30T07:30:36.140Z,73.77
2023-01-30T07:33:06.629Z,73.81
2023-01-30T07:35:36.890Z,73.64
2023-01-30T07:38:05.756Z,73.70
2023-01-30T07:40:33.519Z,73.63
2023-01-30T07:43:12.117Z,73.63
2023-01-30T07:45:49.067Z,73.81
2023-01-30T07:48:19.644Z,73.36
2023-01-30T07:50:47.452Z,73.07
2023-01-30T07:53:18.910Z,73.07
2023-01-30T07:55:46.448Z,73.10
2023-01-30T07:58:17.992Z,72.92
2023-01-30T08:00:45.771Z,72.98
2023-01-30T08:03:15.902Z,72.76
2023-01-30T08:05:47.054Z,73.04
2023-01-30T08:08:15.156Z,72.53
2023-01-30T08:10:42.925Z,72.05
2023-01-30T08:13:10.821Z,71.84
2023-01-30T08:15:38.242Z,72.15
2023-01-30T08:18:07.489Z,71.40
2023-01-30T08:20:35.053Z,71.35
2023-01-30T08:23:03.350Z,70.33
2023-01-30T08:25:31.158Z,70.05
2023-01-30T08:28:00.633Z,68.94
2023-01-30T08:30:30.683Z,67.10
2023-01-30T08:32:59.193Z,65.04
2023-01-30T08:35:26.991Z,65.03
2023-01-30T08:37:54.837Z,66.06
2023-01-30T08:40:22.171Z,67.58
2023-01-30T08:42:49.797Z,68.56
2023-01-30T08:45:17.172Z,68.88
2023-01-30T08:47:44.736Z,69.53
2023-01-30T08:50:12.366Z,69.75
2023-01-30T08:52:39.989Z,71.34
2023-01-30T08:55:08.042Z,71.83
2023-01-30T08:57:36.603Z,71.69
2023-01-30T09:00:05.804Z,71.62
2023-01-30T09:02:35.263Z,72.16
2023-01-30T09:05:04.163Z,72.02
2023-01-30T09:07:33.628Z,72.26
2023-01-30T09:10:01.929Z,72.40
2023-01-30T09:12:29.513Z,72.51
2023-01-30T09:14:58.588Z,72.69
2023-01-30T09:17:26.567Z,72.42
2023-01-30T09:19:54.200Z,72.15
2023-01-30T09:22:21.912Z,72.18
2023-01-30T09:24:49.251Z,72.03
2023-01-30T09:27:16.804Z,71.78
2023-01-30T09:29:45.410Z,72.56
2023-01-30T09:32:13.027Z,73.16
2023-01-30T09:34:40.528Z,73.38
2023-01-30T09:37:08.396Z,74.08
2023-01-30T09:39:35.748Z,74.38
2023-01-30T09:42:07.152Z,73.90
2023-01-30T09:45:21.584Z,74.95
2023-01-30T09:48:18.473Z,74.20
2023-01-30T09:51:02.607Z,73.35
2023-01-30T09:53:36.304Z,72.51
2023-01-30T09:56:06.387Z,73.53
2023-01-30T09:59:03.347Z,72.63
2023-01-30T10:02:09.315Z,73.40
2023-01-30T10:05:00.112Z,75.27
2023-01-30T10:07:34.098Z,75.70
2023-01-30T10:10:28.623Z,77.21
2023-01-30T10:13:13.673Z,78.52
2023-01-30T10:16:09.832Z,79.55
2023-01-30T10:19:20.561Z,80.87
2023-01-30T10:22:41.229Z,81.89
2023-01-30T10:25:38.779Z,81.78
2023-01-30T10:28:37.606Z,81.80
2023-01-30T10:31:15.734Z,82.02
2023-01-30T10:34:06.580Z,83.52
2023-01-30T10:36:49.740Z,84.66
2023-01-30T10:39:55.540Z,84.68
2023-01-30T10:42:44.009Z,85.44
2023-01-30T10:45:17.535Z,85.83
2023-01-30T10:48:31.372Z,85.94
2023-01-30T10:51:33.649Z,86.11
2023-01-30T10:54:26.928Z,85.06
2023-01-30T10:57:23.923Z,84.22
2023-01-30T11:00:11.295Z,83.84
2023-01-30T11:03:05.035Z,83.18
2023-01-30T11:05:47.531Z,83.23
2023-01-30T11:08:28.918Z,83.13
2023-01-30T11:10:57.962Z,83.27
2023-01-30T11:13:34.498Z,84.39
2023-01-30T11:16:08.049Z,83.77
2023-01-30T11:19:18.698Z,84.27
2023-01-30T11:21:44.557Z,84.25
2023-01-30T11:24:31.009Z,84.43
2023-01-30T11:27:29.441Z,85.66
2023-01-30T11:30:11.165Z,85.19
2023-01-30T11:32:38.671Z,85.37
2023-01-30T11:35:09.342Z,85.48
2023-01-30T11:37:41.359Z,84.75
2023-01-30T11:40:31.277Z,85.74
2023-01-30T11:43:14.260Z,85.95
2023-01-30T11:45:50.514Z,87.31
2023-01-30T11:48:32.955Z,86.60
2023-01-30T11:51:16.956Z,86.58
2023-01-30T11:54:01.225Z,86.29
2023-01-30T11:56:54.528Z,87.65
2023-01-30T11:59:37.157Z,86.84
2023-01-30T12:02:29.968Z,87.35
2023-01-30T12:05:05.463Z,86.22
2023-01-30T12:07:37.611Z,86.17
2023-01-30T12:10:31.652Z,85.99
2023-01-30T12:13:20.155Z,85.92
2023-01-30T12:15:58.265Z,86.21
2023-01-30T12:18:50.941Z,86.69
2023-01-30T12:21:36.329Z,87.43
2023-01-30T12:24:25.909Z,87.11
2023-01-30T12:27:10.039Z,86.88
2023-01-30T12:30:11.320Z,86.46
2023-01-30T12:32:38.975Z,87.24
2023-01-30T12:35:18.562Z,86.77
2023-01-30T12:38:05.597Z,88.07
2023-01-30T12:41:16.572Z,88.72
2023-01-30T12:48:22.862Z,91.16
2023-01-30T12:51:21.248Z,92.88
2023-01-30T12:54:21.307Z,93.40
2023-01-30T12:57:10.413Z,93.90
2023-01-30T12:59:47.071Z,93.89
2023-01-30T13:03:12.917Z,94.50
2023-01-30T13:05:54.447Z,94.50
2023-01-30T13:08:43.047Z,95.24
2023-01-30T13:11:42.046Z,95.26
2023-01-30T13:14:44.734Z,94.70
2023-01-30T13:17:49.788Z,94.37
2023-01-30T13:20:53.220Z,95.12
2023-01-30T13:23:54.433Z,94.45
2023-01-30T13:26:31.369Z,94.01
2023-01-30T13:29:29.782Z,93.76
2023-01-30T13:32:02.629Z,92.89
2023-01-30T13:34:45.762Z,93.00
2023-01-30T13:37:20.764Z,91.88
2023-01-30T13:40:13.643Z,91.08
2023-01-30T13:43:02.195Z,91.05
2023-01-30T13:45:36.778Z,90.28
2023-01-30T13:48:30.922Z,89.90
2023-01-30T13:51:52.994Z,88.50
2023-01-30T13:54:50.680Z,87.09
2023-01-30T13:57:40.307Z,85.72
2023-01-30T14:00:26.896Z,77.42
2023-01-30T14:03:06.729Z,60.27
2023-01-30T14:05:52.795Z,55.12
2023-01-30T14:08:38.171Z,52.79
2023-01-30T14:11:37.303Z,56.98
2023-01-30T14:14:32.363Z,63.44
2023-01-30T14:17:16.721Z,69.14
2023-01-30T14:20:00.828Z,72.59
2023-01-30T14:22:54.593Z,73.56
2023-01-30T14:25:32.945Z,76.75
2023-01-30T14:28:00.419Z,78.26
2023-01-30T14:30:56.069Z,80.19
2023-01-30T14:33:23.787Z,81.17
2023-01-30T14:36:03.268Z,81.66
2023-01-30T14:38:36.088Z,82.31
2023-01-30T14:41:03.377Z,83.14
2023-01-30T14:43:43.035Z,83.80
2023-01-30T14:46:19.643Z,83.96
2023-01-30T14:49:19.530Z,84.43
2023-01-30T14:51:49.806Z,85.24
2023-01-30T14:54:17.319Z,85.09
2023-01-30T14:56:57.205Z,85.97
2023-01-30T14:59:54.082Z,85.68
2023-01-30T15:02:49.491Z,86.94
2023-01-30T15:05:30.795Z,87.37
2023-01-30T15:08:12.960Z,87.42
2023-01-30T15:10:49.418Z,87.08
2023-01-30T15:13:58.964Z,87.50
2023-01-30T15:17:03.051Z,87.29
2023-01-30T15:20:02.698Z,87.95
2023-01-30T15:23:18.569Z,87.99
2023-01-30T15:25:57.346Z,87.40
2023-01-30T15:29:06.509Z,87.43
2023-01-30T15:31:33.982Z,87.69
2023-01-30T15:34:01.717Z,88.03
2023-01-30T15:36:35.981Z,87.98
2023-01-30T15:39:40.358Z,87.84
2023-01-30T15:42:15.314Z,87.54
2023-01-30T15:45:33.331Z,88.28
2023-01-30T15:48:31.556Z,88.67
2023-01-30T15:51:01.461Z,89.39
2023-01-30T15:53:41.363Z,89.08
2023-01-30T15:56:17.781Z,88.94
2023-01-30T15:58:45.995Z,89.07
2023-01-30T16:01:21.365Z,88.95
2023-01-30T16:03:50.281Z,89.23
2023-01-30T16:06:23.853Z,88.90
2023-01-30T16:09:00.807Z,88.42
2023-01-30T16:11:42.772Z,88.14
2023-01-30T16:14:22.208Z,88.39
2023-01-30T16:17:10.503Z,88.21
2023-01-30T16:19:39.109Z,88.10
2023-01-30T16:22:19.152Z,88.15
2023-01-30T16:24:53.226Z,88.44
2023-01-30T16:27:32.253Z,88.52
2023-01-30T16:30:08.686Z,88.34
2023-01-30T16:32:37.521Z,87.88
2023-01-30T16:35:27.099Z,87.64
2023-01-30T16:37:59.152Z,88.25
2023-01-30T16:40:45.553Z,87.86
2023-01-30T16:43:25.003Z,88.09
2023-01-30T16:45:55.245Z,87.81
2023-01-30T16:48:43.974Z,88.35
2023-01-30T16:51:21.764Z,88.22
2023-01-30T16:54:04.860Z,88.11
2023-01-30T16:56:34.975Z,87.73
2023-01-30T16:59:03.656Z,87.67
2023-01-30T17:01:41.466Z,87.52
2023-01-30T17:04:22.958Z,88.08
2023-01-30T17:07:01.699Z,88.58
2023-01-30T17:09:42.731Z,88.38
2023-01-30T17:12:31.240Z,88.41
2023-01-30T17:15:13.893Z,89.06
2023-01-30T17:17:42.575Z,89.06
2023-01-30T17:20:13.180Z,88.62
2023-01-30T17:22:44.604Z,88.42
2023-01-30T17:25:33.005Z,88.66
2023-01-30T17:28:00.396Z,88.89
2023-01-30T17:30:28.021Z,88.95
2023-01-30T17:32:55.329Z,88.52
2023-01-30T17:35:23.048Z,89.46
2023-01-30T17:37:59.750Z,90.33
2023-01-30T17:40:36.872Z,90.94
2023-01-30T17:43:05.580Z,91.92
2023-01-30T17:45:33.747Z,92.39
2023-01-30T17:48:01.803Z,92.78
2023-01-30T17:50:29.505Z,92.88
2023-01-30T17:52:56.883Z,92.99
2023-01-30T17:55:25.123Z,93.59
2023-01-30T17:57:53.157Z,93.85
2023-01-30T18:00:22.902Z,94.88
2023-01-30T18:02:50.447Z,94.18
2023-01-30T18:05:18.231Z,94.28
2023-01-30T18:07:45.708Z,94.65
2023-01-30T18:10:20.460Z,94.57
2023-01-30T18:12:48.013Z,94.41
2023-01-30T18:15:16.658Z,94.10
2023-01-30T18:17:48.540Z,93.37
2023-01-30T18:20:20.275Z,93.35
2023-01-30T18:22:48.091Z,93.31
2023-01-30T18:25:17.649Z,92.68
2023-01-30T18:27:47.410Z,92.33
2023-01-30T18:30:17.686Z,92.33
2023-01-30T18:32:53.562Z,92.48
2023-01-30T18:35:23.200Z,91.73
2023-01-30T18:37:51.109Z,91.44
2023-01-30T18:40:20.876Z,91.50
2023-01-30T18:42:48.706Z,91.09
2023-01-30T18:45:16.582Z,90.94
2023-01-30T18:47:44.008Z,90.28
2023-01-30T18:50:12.277Z,90.31
2023-01-30T18:52:39.697Z,90.33
2023-01-30T18:55:07.903Z,89.85
2023-01-30T18:57:35.230Z,89.51
2023-01-30T19:00:03.348Z,89.92
2023-01-30T19:02:30.910Z,89.87
2023-01-30T19:04:58.572Z,89.89
2023-01-30T19:07:25.881Z,89.30
2023-01-30T19:09:53.666Z,89.32
2023-01-30T19:12:41.382Z,88.96
2023-01-30T19:15:10.249Z,89.15
2023-01-30T19:17:37.543Z,88.58
2023-01-30T19:20:10.863Z,89.10
2023-01-30T19:22:39.270Z,89.15
2023-01-30T19:25:07.842Z,88.98
2023-01-30T19:27:38.508Z,89.40
2023-01-30T19:30:07.424Z,89.62
2023-01-30T19:32:35.039Z,89.47
2023-01-30T19:35:02.965Z,89.03
2023-01-30T19:37:30.407Z,88.78
2023-01-30T19:39:58.039Z,88.58
2023-01-30T19:42:25.444Z,88.77
2023-01-30T19:44:53.255Z,88.62
2023-01-30T19:47:22.130Z,89.10
2023-01-30T19:49:49.914Z,88.84
2023-01-30T19:52:17.190Z,88.78
2023-01-30T19:54:47.039Z,89.15
2023-01-30T19:57:14.406Z,89.47
2023-01-30T19:59:42.839Z,90.15
2023-01-30T20:02:13.305Z,90.96
2023-01-30T20:04:41.058Z,91.43
2023-01-30T20:07:08.417Z,91.47
2023-01-30T20:09:36.139Z,91.57
2023-01-30T20:12:03.840Z,91.36
2023-01-30T20:14:31.549Z,91.16
2023-01-30T20:16:58.895Z,90.70
2023-01-30T20:19:27.289Z,90.03
2023-01-30T20:21:55.184Z,89.76
2023-01-30T20:24:23.002Z,89.45
2023-01-30T20:26:50.513Z,89.49
2023-01-30T20:29:18.256Z,89.13
2023-01-30T20:31:45.689Z,89.39
2023-01-30T20:34:15.265Z,89.43
2023-01-30T20:36:42.805Z,89.70
2023-01-30T20:39:10.639Z,91.28
2023-01-30T20:41:38.766Z,92.31
2023-01-30T20:44:10.531Z,94.10
2023-01-30T20:46:44.195Z,94.99
2023-01-30T20:49:29.929Z,95.56
2023-01-30T20:51:57.195Z,96.28
2023-01-30T20:54:24.778Z,96.70
2023-01-30T20:56:53.990Z,97.20
2023-01-30T20:59:24.490Z,97.49
2023-01-30T21:01:53.275Z,97.88
2023-01-30T21:04:24.574Z,98.25
2023-01-30T21:06:52.240Z,98.97
2023-01-30T21:09:23.146Z,99.57
2023-01-30T21:11:53.113Z,99.70
2023-01-30T21:14:21.584Z,99.94
2023-01-30T21:16:49.448Z,100.00
2023-01-30T21:19:18.239Z,100.00
2023-01-30T21:21:53.498Z,100.00
2023-01-30T21:24:28.567Z,100.00
2023-01-30T21:26:56.967Z,100.00
2023-01-30T21:29:28.417Z,100.00
2023-01-30T21:31:57.818Z,100.00
2023-01-30T21:34:25.864Z,100.00
2023-01-30T21:37:11.798Z,100.00
2023-01-30T21:39:58.206Z,99.89
2023-01-30T21:42:44.055Z,99.90
2023-01-30T21:45:11.712Z,99.79
2023-01-30T21:47:39.028Z,99.67
2023-01-30T21:50:07.588Z,99.22
2023-01-30T21:52:35.142Z,98.43
2023-01-30T21:55:02.904Z,97.73
2023-01-30T21:57:30.338Z,96.95
2023-01-30T21:59:58.066Z,96.70
2023-01-30T22:02:25.516Z,96.03
2023-01-30T22:04:53.225Z,95.77
2023-01-30T22:07:20.596Z,95.06
2023-01-30T22:09:48.993Z,95.01
2023-01-30T22:12:16.495Z,93.77
2023-01-30T22:14:44.074Z,93.36
2023-01-30T22:17:11.468Z,93.02
2023-01-30T22:19:39.703Z,93.02
2023-01-30T22:22:07.143Z,93.23
2023-01-30T22:24:34.817Z,93.02
2023-01-30T22:27:02.203Z,93.31
2023-01-30T22:29:29.903Z,93.63
2023-01-30T22:31:57.334Z,93.28
2023-01-30T22:34:25.053Z,93.04
2023-01-30T22:36:53.059Z,92.92
2023-01-30T22:39:20.765Z,92.69
2023-01-30T22:41:48.142Z,92.99
2023-01-30T22:44:15.737Z,93.92
2023-01-30T22:46:43.061Z,94.85
2023-01-30T22:49:10.959Z,96.20
2023-01-30T22:51:41.211Z,96.71
2023-01-30T22:54:16.073Z,97.41
2023-01-30T22:56:47.630Z,97.42
2023-01-30T22:59:15.343Z,97.79
2023-01-30T23:01:46.864Z,98.20
2023-01-30T23:04:19.278Z,98.64
2023-01-30T23:06:47.753Z,99.29
2023-01-30T23:09:20.040Z,99.39
2023-01-30T23:12:10.807Z,100.00
2023-01-30T23:14:39.292Z,99.90
2023-01-30T23:17:26.782Z,100.00
2023-01-30T23:19:57.767Z,100.00
2023-01-30T23:22:25.223Z,100.00
2023-01-30T23:24:52.828Z,100.00
2023-01-30T23:27:21.183Z,100.00
2023-01-30T23:29:48.925Z,100.00
2023-01-30T23:32:19.942Z,100.00
2023-01-30T23:34:48.273Z,100.00
2023-01-30T23:37:16.650Z,100.00
2023-01-30T23:39:44.985Z,100.00
2023-01-30T23:42:12.244Z,100.00
2023-01-30T23:44:40.128Z,100.00
2023-01-30T23:47:07.604Z,100.00
2023-01-30T23:49:35.400Z,100.00
2023-01-30T23:52:02.709Z,100.00
2023-01-30T23:54:30.337Z,100.00
2023-01-30T23:56:57.664Z,100.00
2023-01-30T23:59:25.235Z,100.00
